createdAt,value
2023-04-04T00:00:22.318Z,2.83
2023-04-04T00:02:49.607Z,2.65
2023-04-04T00:05:17.010Z,2.00
2023-04-04T00:07:47.304Z,2.28
2023-04-04T00:10:14.547Z,2.08
2023-04-04T00:12:42.243Z,2.30
2023-04-04T00:15:09.619Z,2.28
2023-04-04T00:17:36.418Z,2.80
2023-04-04T00:20:04.365Z,2.30
2023-04-04T00:22:31.572Z,1.08
2023-04-04T00:24:59.151Z,2.03
2023-04-04T00:27:26.293Z,2.47
2023-04-04T00:29:53.428Z,1.63
2023-04-04T00:32:20.659Z,2.65
2023-04-04T00:34:53.005Z,1.70
2023-04-04T00:37:19.794Z,1.80
2023-04-04T00:39:47.682Z,2.72
2023-04-04T00:42:14.453Z,1.63
2023-04-04T00:44:41.430Z,1.80
2023-04-04T00:47:08.231Z,2.13
2023-04-04T00:49:35.014Z,1.75
2023-04-04T00:52:02.244Z,2.53
2023-04-04T00:54:30.556Z,1.83
2023-04-04T00:56:58.229Z,2.22
2023-04-04T00:59:27.823Z,2.15
2023-04-04T01:01:55.124Z,2.50
2023-04-04T01:04:22.462Z,2.30
2023-04-04T01:06:50.930Z,2.30
2023-04-04T01:09:18.504Z,1.73
2023-04-04T01:11:45.611Z,1.77
2023-04-04T01:14:12.515Z,2.55
2023-04-04T01:16:41.133Z,2.25
2023-04-04T01:19:14.167Z,2.25
2023-04-04T01:21:43.134Z,2.20
2023-04-04T01:24:13.290Z,2.35
2023-04-04T01:26:40.042Z,2.60
2023-04-04T01:29:06.851Z,2.58
2023-04-04T01:31:43.459Z,2.65
2023-04-04T01:34:48.346Z,2.20
2023-04-04T01:37:35.087Z,2.20
2023-04-04T01:40:17.148Z,2.35
2023-04-04T01:42:45.696Z,2.28
2023-04-04T01:45:12.601Z,2.45
2023-04-04T01:47:43.340Z,2.72
2023-04-04T01:50:11.773Z,2.70
2023-04-04T01:52:38.852Z,2.83
2023-04-04T01:55:06.030Z,2.90
2023-04-04T01:57:32.848Z,3.05
2023-04-04T01:59:59.608Z,2.95
2023-04-04T02:02:27.129Z,2.35
2023-04-04T02:04:53.977Z,2.95
2023-04-04T02:07:20.753Z,2.17
2023-04-04T02:09:47.601Z,2.78
2023-04-04T02:12:14.498Z,2.20
2023-04-04T02:14:41.313Z,3.13
2023-04-04T02:17:08.075Z,2.83
2023-04-04T02:19:35.588Z,2.55
2023-04-04T02:22:02.675Z,3.00
2023-04-04T02:24:29.476Z,2.88
2023-04-04T02:26:56.268Z,3.22
2023-04-04T02:29:23.535Z,1.92
2023-04-04T02:31:50.462Z,3.00
2023-04-04T02:34:17.373Z,2.70
2023-04-04T02:36:44.166Z,3.00
2023-04-04T02:39:11.074Z,2.65
2023-04-04T02:41:37.836Z,3.67
2023-04-04T02:44:04.549Z,3.72
2023-04-04T02:46:31.286Z,2.95
2023-04-04T02:48:58.095Z,3.45
2023-04-04T02:51:24.850Z,3.38
2023-04-04T02:53:51.618Z,2.88
2023-04-04T02:56:18.398Z,2.97
2023-04-04T02:58:45.651Z,3.67
2023-04-04T03:01:12.632Z,3.10
2023-04-04T03:03:39.642Z,3.28
2023-04-04T03:06:06.579Z,3.42
2023-04-04T03:08:34.982Z,3.25
2023-04-04T03:11:02.667Z,3.42
2023-04-04T03:13:29.478Z,3.28
2023-04-04T03:16:04.581Z,3.05
2023-04-04T03:18:31.581Z,3.38
2023-04-04T03:20:58.396Z,3.58
2023-04-04T03:23:25.227Z,2.85
2023-04-04T03:25:51.979Z,3.28
2023-04-04T03:28:18.694Z,3.10
2023-04-04T03:30:45.627Z,3.22
2023-04-04T03:33:12.414Z,3.00
2023-04-04T03:35:39.861Z,3.35
2023-04-04T03:38:07.450Z,3.00
2023-04-04T03:40:34.283Z,3.78
2023-04-04T03:43:02.394Z,3.38
2023-04-04T03:45:32.639Z,2.78
2023-04-04T03:47:59.476Z,4.13
2023-04-04T03:50:26.498Z,2.58
2023-04-04T03:52:53.321Z,4.00
2023-04-04T03:55:20.088Z,3.58
2023-04-04T03:57:47.111Z,3.33
2023-04-04T04:00:14.323Z,2.70
2023-04-04T04:02:41.278Z,3.17
2023-04-04T04:05:09.248Z,3.55
2023-04-04T04:07:36.082Z,3.28
2023-04-04T04:10:03.306Z,4.45
2023-04-04T04:12:30.069Z,4.97
2023-04-04T04:14:56.854Z,3.90
2023-04-04T04:17:23.672Z,4.03
2023-04-04T04:19:50.470Z,4.63
2023-04-04T04:22:17.221Z,4.70
2023-04-04T04:24:43.977Z,4.25
2023-04-04T04:27:10.964Z,4.03
2023-04-04T04:29:37.758Z,3.83
2023-04-04T04:32:04.570Z,3.30
2023-04-04T04:34:31.637Z,3.88
2023-04-04T04:36:58.427Z,4.22
2023-04-04T04:39:25.181Z,3.72
2023-04-04T04:41:51.945Z,3.63
2023-04-04T04:44:18.742Z,3.80
2023-04-04T04:46:45.486Z,3.60
2023-04-04T04:49:12.508Z,4.57
2023-04-04T04:51:39.354Z,4.28
2023-04-04T04:54:06.171Z,5.13
2023-04-04T04:56:32.958Z,3.97
2023-04-04T04:58:59.764Z,4.57
2023-04-04T05:01:26.801Z,4.28
2023-04-04T05:03:53.709Z,4.85
2023-04-04T05:06:20.703Z,4.35
2023-04-04T05:08:47.623Z,4.05
2023-04-04T05:11:14.391Z,4.70
2023-04-04T05:13:41.227Z,4.32
2023-04-04T05:16:07.994Z,3.75
2023-04-04T05:18:34.784Z,4.35
2023-04-04T05:21:01.506Z,3.92
2023-04-04T05:23:28.322Z,3.88
2023-04-04T05:25:55.118Z,5.10
2023-04-04T05:28:23.749Z,4.72
2023-04-04T05:30:50.778Z,4.20
2023-04-04T05:33:17.584Z,4.30
2023-04-04T05:35:44.390Z,4.47
2023-04-04T05:38:11.317Z,5.15
2023-04-04T05:40:38.340Z,5.05
2023-04-04T05:43:05.347Z,4.63
2023-04-04T05:45:32.100Z,5.07
2023-04-04T05:47:58.907Z,5.13
2023-04-04T05:50:25.996Z,4.65
2023-04-04T05:52:55.956Z,5.43
2023-04-04T05:55:23.129Z,5.00
2023-04-04T05:57:50.826Z,5.35
2023-04-04T06:00:19.498Z,5.15
2023-04-04T06:02:46.409Z,4.93
2023-04-04T06:05:13.159Z,4.68
2023-04-04T06:07:39.929Z,5.55
2023-04-04T06:10:08.022Z,5.70
2023-04-04T06:12:34.811Z,5.65
2023-04-04T06:15:01.612Z,5.07
2023-04-04T06:17:28.425Z,5.55
2023-04-04T06:19:55.597Z,5.32
2023-04-04T06:22:22.355Z,6.03
2023-04-04T06:24:49.145Z,6.15
2023-04-04T06:27:16.012Z,5.57
2023-04-04T06:29:42.825Z,7.53
2023-04-04T06:32:09.672Z,7.32
2023-04-04T06:34:36.412Z,7.85
2023-04-04T06:37:03.531Z,9.80
2023-04-04T06:39:31.523Z,6.88
2023-04-04T06:41:58.318Z,5.40
2023-04-04T06:44:25.116Z,4.72
2023-04-04T06:46:52.050Z,4.68
2023-04-04T06:49:18.826Z,5.03
2023-04-04T06:51:46.491Z,4.95
2023-04-04T06:54:13.273Z,4.55
2023-04-04T06:56:40.054Z,4.50
2023-04-04T06:59:06.866Z,3.70
2023-04-04T07:01:34.383Z,3.80
2023-04-04T07:04:01.165Z,3.38
2023-04-04T07:06:29.719Z,4.18
2023-04-04T07:08:56.556Z,3.50
2023-04-04T07:11:27.038Z,3.33
2023-04-04T07:13:53.923Z,2.58
2023-04-04T07:16:21.108Z,2.80
2023-04-04T07:18:47.909Z,3.08
2023-04-04T07:21:14.727Z,2.63
2023-04-04T07:23:41.498Z,2.10
2023-04-04T07:26:08.296Z,2.30
2023-04-04T07:28:35.129Z,2.05
2023-04-04T07:31:02.119Z,1.85
2023-04-04T07:33:29.096Z,2.90
2023-04-04T07:35:55.912Z,1.95
2023-04-04T07:38:22.840Z,1.73
2023-04-04T07:40:50.570Z,2.25
2023-04-04T07:43:17.360Z,2.17
2023-04-04T07:45:44.407Z,2.10
2023-04-04T07:48:11.377Z,1.60
2023-04-04T07:50:38.568Z,1.50
2023-04-04T07:53:05.536Z,1.75
2023-04-04T07:55:32.268Z,1.55
2023-04-04T07:57:59.064Z,1.35
2023-04-04T08:00:26.517Z,1.25
2023-04-04T08:02:54.850Z,1.85
2023-04-04T08:05:21.832Z,1.67
2023-04-04T08:07:48.631Z,1.83
2023-04-04T08:10:17.789Z,1.80
2023-04-04T08:12:45.095Z,2.03
2023-04-04T08:15:12.330Z,1.90
2023-04-04T08:17:39.261Z,2.28
2023-04-04T08:20:06.899Z,2.05
2023-04-04T08:22:33.784Z,1.83
2023-04-04T08:25:00.781Z,2.63
2023-04-04T08:27:27.983Z,1.88
2023-04-04T08:29:54.821Z,2.28
2023-04-04T08:32:22.265Z,2.10
2023-04-04T08:34:49.787Z,2.00
2023-04-04T08:37:19.972Z,1.95
2023-04-04T08:39:46.769Z,1.92
2023-04-04T08:42:16.840Z,2.30
2023-04-04T08:44:45.811Z,1.70
2023-04-04T08:47:14.553Z,1.90
2023-04-04T08:49:46.646Z,1.67
2023-04-04T08:52:17.828Z,1.38
2023-04-04T08:54:46.279Z,2.35
2023-04-04T08:57:13.567Z,7.40
2023-04-04T08:59:40.529Z,6.50
2023-04-04T09:02:10.271Z,5.72
2023-04-04T09:04:37.882Z,3.60
2023-04-04T09:07:06.668Z,2.78
2023-04-04T09:09:34.262Z,2.90
2023-04-04T09:12:02.365Z,6.63
2023-04-04T09:14:30.886Z,3.03
2023-04-04T09:16:58.210Z,1.98
2023-04-04T09:19:26.375Z,2.42
2023-04-04T09:21:53.384Z,2.38
2023-04-04T09:24:20.278Z,2.10
2023-04-04T09:26:47.966Z,2.50
2023-04-04T09:29:17.484Z,1.70
2023-04-04T09:31:46.724Z,1.95
2023-04-04T09:34:14.900Z,1.50
2023-04-04T09:36:41.842Z,1.67
2023-04-04T09:39:09.168Z,1.98
2023-04-04T09:41:39.644Z,2.45
2023-04-04T09:44:09.870Z,2.47
2023-04-04T09:46:37.702Z,2.17
2023-04-04T09:49:04.781Z,2.28
2023-04-04T09:51:44.454Z,2.30
2023-04-04T09:54:18.752Z,2.10
2023-04-04T09:56:53.666Z,10.75
2023-04-04T09:59:20.678Z,12.30
2023-04-04T10:01:51.115Z,3.75
2023-04-04T10:04:19.089Z,2.50
2023-04-04T10:06:46.295Z,1.48
2023-04-04T10:09:13.474Z,5.00
2023-04-04T10:11:40.260Z,2.90
2023-04-04T10:14:09.320Z,2.63
2023-04-04T10:16:37.583Z,1.98
2023-04-04T10:19:08.380Z,3.60
2023-04-04T10:21:35.728Z,1.60
2023-04-04T10:24:09.267Z,1.52
2023-04-04T10:26:36.902Z,1.58
2023-04-04T10:29:05.883Z,2.13
2023-04-04T10:31:35.657Z,1.25
2023-04-04T10:34:28.984Z,2.20
2023-04-04T10:37:15.107Z,1.88
2023-04-04T10:39:42.664Z,2.30
2023-04-04T10:42:13.812Z,1.15
2023-04-04T10:44:41.765Z,1.40
2023-04-04T10:47:21.868Z,1.80
2023-04-04T10:49:50.668Z,1.50
2023-04-04T10:52:23.528Z,1.80
2023-04-04T10:54:59.621Z,1.48
2023-04-04T11:00:31.628Z,1.92
2023-04-04T11:03:02.711Z,1.45
2023-04-04T11:05:43.542Z,1.52
2023-04-04T11:08:14.009Z,1.20
2023-04-04T11:10:47.313Z,1.15
2023-04-04T11:13:18.308Z,2.42
2023-04-04T11:16:09.936Z,2.25
2023-04-04T11:18:42.516Z,1.30
2023-04-04T11:21:10.072Z,1.70
2023-04-04T11:23:49.167Z,1.40
2023-04-04T11:26:35.075Z,1.30
2023-04-04T11:29:03.620Z,1.98
2023-04-04T11:31:40.669Z,1.60
2023-04-04T11:34:09.418Z,1.88
2023-04-04T11:36:36.389Z,2.05
2023-04-04T11:39:28.267Z,1.13
2023-04-04T11:41:58.827Z,2.10
2023-04-04T11:44:30.590Z,1.42
2023-04-04T11:47:06.404Z,1.67
2023-04-04T11:49:45.523Z,1.83
2023-04-04T11:52:14.513Z,1.40
2023-04-04T11:54:43.624Z,1.55
2023-04-04T11:57:28.656Z,1.65
2023-04-04T11:59:55.734Z,1.80
2023-04-04T12:02:34.208Z,1.70
2023-04-04T12:05:01.497Z,1.60
2023-04-04T12:07:31.780Z,2.20
2023-04-04T12:09:58.711Z,2.00
2023-04-04T12:12:27.750Z,1.48
2023-04-04T12:14:58.070Z,2.00
2023-04-04T12:17:34.527Z,2.22
2023-04-04T12:20:01.352Z,1.80
2023-04-04T12:22:28.766Z,2.08
2023-04-04T12:24:58.152Z,4.22
2023-04-04T12:27:25.547Z,11.18
2023-04-04T12:29:52.837Z,2.47
2023-04-04T12:32:19.872Z,5.85
2023-04-04T12:34:49.948Z,11.60
2023-04-04T12:37:19.431Z,2.75
2023-04-04T12:39:50.857Z,13.70
2023-04-04T12:42:25.152Z,23.05
2023-04-04T12:44:53.806Z,11.68
2023-04-04T12:47:22.432Z,6.38
2023-04-04T12:49:49.955Z,2.22
2023-04-04T12:52:27.248Z,5.50
2023-04-04T12:55:06.596Z,3.25
2023-04-04T12:57:35.936Z,3.15
2023-04-04T13:00:06.606Z,1.83
2023-04-04T13:02:36.047Z,3.63
2023-04-04T13:05:04.032Z,2.78
2023-04-04T13:07:33.709Z,2.58
2023-04-04T13:10:05.549Z,1.98
2023-04-04T13:12:58.926Z,2.45
2023-04-04T13:15:51.563Z,2.00
2023-04-04T13:18:21.098Z,3.15
2023-04-04T13:20:52.707Z,4.45
2023-04-04T13:23:20.971Z,3.97
2023-04-04T13:25:47.886Z,2.00
2023-04-04T13:28:14.908Z,3.42
2023-04-04T13:30:46.798Z,6.70
2023-04-04T13:33:13.812Z,2.17
2023-04-04T13:35:44.161Z,2.92
2023-04-04T13:38:11.791Z,2.08
2023-04-04T13:40:38.672Z,2.53
2023-04-04T13:43:05.591Z,3.85
2023-04-04T13:45:35.851Z,5.25
2023-04-04T13:48:04.127Z,5.80
2023-04-04T13:50:33.041Z,2.65
2023-04-04T13:52:59.832Z,2.50
2023-04-04T13:55:27.568Z,3.63
2023-04-04T13:57:54.424Z,3.42
2023-04-04T14:00:21.525Z,3.47
2023-04-04T14:02:52.882Z,3.63
2023-04-04T14:05:21.262Z,2.70
2023-04-04T14:07:48.248Z,2.30
2023-04-04T14:10:15.110Z,2.92
2023-04-04T14:12:41.985Z,2.55
2023-04-04T14:15:09.528Z,2.55
2023-04-04T14:17:36.619Z,3.00
2023-04-04T14:20:04.272Z,2.45
2023-04-04T14:22:31.457Z,2.05
2023-04-04T14:24:58.173Z,2.20
2023-04-04T14:27:24.994Z,2.40
2023-04-04T14:29:51.785Z,2.63
2023-04-04T14:32:19.217Z,2.50
2023-04-04T14:34:46.005Z,2.25
2023-04-04T14:37:12.889Z,2.85
2023-04-04T14:39:39.689Z,2.53
2023-04-04T14:42:06.611Z,2.20
2023-04-04T14:44:33.833Z,2.80
2023-04-04T14:47:00.796Z,3.15
2023-04-04T14:49:27.889Z,3.00
2023-04-04T14:51:54.628Z,3.28
2023-04-04T14:54:21.604Z,2.30
2023-04-04T14:56:48.815Z,2.63
2023-04-04T14:59:15.782Z,2.72
2023-04-04T15:01:42.678Z,2.50
2023-04-04T15:04:10.734Z,2.38
2023-04-04T15:06:38.166Z,2.20
2023-04-04T15:09:06.153Z,3.17
2023-04-04T15:11:32.973Z,2.47
2023-04-04T15:13:59.745Z,2.50
2023-04-04T15:16:29.718Z,3.10
2023-04-04T15:18:56.484Z,3.40
2023-04-04T15:21:23.246Z,2.35
2023-04-04T15:23:50.032Z,2.30
2023-04-04T15:26:16.816Z,2.67
2023-04-04T15:28:43.566Z,3.17
2023-04-04T15:31:13.048Z,1.85
2023-04-04T15:33:40.530Z,1.95
2023-04-04T15:36:07.311Z,1.95
2023-04-04T15:38:34.064Z,1.80
2023-04-04T15:41:00.853Z,1.77
2023-04-04T15:43:27.863Z,2.42
2023-04-04T15:45:54.675Z,2.60
2023-04-04T15:48:21.497Z,2.58
2023-04-04T15:50:48.726Z,2.33
2023-04-04T15:53:15.657Z,2.67
2023-04-04T15:55:43.714Z,2.35
2023-04-04T15:58:10.495Z,2.30
2023-04-04T16:00:37.429Z,2.30
2023-04-04T16:03:04.401Z,1.75
2023-04-04T16:05:31.272Z,2.63
2023-04-04T16:07:58.034Z,3.00
2023-04-04T16:10:24.744Z,3.35
2023-04-04T16:12:51.626Z,2.33
2023-04-04T16:15:19.150Z,4.72
2023-04-04T16:17:47.056Z,4.57
2023-04-04T16:20:14.181Z,4.45
2023-04-04T16:22:40.988Z,3.47
2023-04-04T16:25:08.962Z,2.50
2023-04-04T16:27:36.807Z,3.38
2023-04-04T16:30:03.961Z,3.30
2023-04-04T16:32:31.863Z,2.30
2023-04-04T16:34:58.743Z,2.70
2023-04-04T16:37:25.612Z,2.45
2023-04-04T16:39:52.495Z,2.53
2023-04-04T16:42:19.560Z,2.05
2023-04-04T16:44:47.423Z,2.38
2023-04-04T16:47:14.473Z,2.75
2023-04-04T16:49:41.958Z,2.88
2023-04-04T16:52:10.647Z,2.72
2023-04-04T16:54:38.085Z,3.92
2023-04-04T16:57:04.831Z,5.75
2023-04-04T16:59:31.632Z,2.55
2023-04-04T17:01:58.450Z,2.47
2023-04-04T17:04:25.608Z,2.80
2023-04-04T17:06:52.442Z,3.08
2023-04-04T17:09:19.136Z,3.30
2023-04-04T17:11:46.948Z,4.03
2023-04-04T17:14:16.303Z,3.08
2023-04-04T17:16:43.602Z,2.78
2023-04-04T17:19:10.669Z,3.00
2023-04-04T17:21:37.466Z,4.30
2023-04-04T17:24:04.405Z,4.35
2023-04-04T17:26:31.204Z,5.22
2023-04-04T17:28:57.961Z,5.25
2023-04-04T17:31:24.826Z,6.13
2023-04-04T17:33:51.648Z,10.90
2023-04-04T17:36:19.046Z,8.32
2023-04-04T17:38:46.690Z,6.72
2023-04-04T17:41:13.673Z,3.35
2023-04-04T17:43:41.125Z,4.03
2023-04-04T17:46:09.324Z,3.95
2023-04-04T17:48:39.084Z,4.07
2023-04-04T17:51:07.827Z,3.78
2023-04-04T17:53:35.273Z,5.20
2023-04-04T17:56:01.993Z,5.45
2023-04-04T17:58:28.731Z,5.22
2023-04-04T18:00:57.425Z,4.05
2023-04-04T18:03:24.367Z,4.18
2023-04-04T18:05:52.833Z,4.43
2023-04-04T18:08:20.062Z,4.03
2023-04-04T18:10:47.050Z,4.90
2023-04-04T18:13:13.844Z,4.78
2023-04-04T18:15:41.245Z,5.00
2023-04-04T18:18:08.377Z,4.57
2023-04-04T18:20:36.541Z,5.60
2023-04-04T18:23:04.463Z,4.15
2023-04-04T18:25:32.372Z,4.30
2023-04-04T18:27:59.663Z,5.07
2023-04-04T18:30:26.706Z,4.10
2023-04-04T18:32:53.528Z,3.90
2023-04-04T18:35:20.339Z,5.63
2023-04-04T18:37:47.106Z,4.80
2023-04-04T18:40:14.196Z,4.18
2023-04-04T18:42:41.128Z,4.25
2023-04-04T18:45:08.271Z,3.63
2023-04-04T18:47:35.428Z,4.10
2023-04-04T18:50:03.022Z,3.53
2023-04-04T18:52:29.856Z,3.45
2023-04-04T18:54:56.609Z,3.45
2023-04-04T18:57:23.438Z,4.18
2023-04-04T18:59:50.315Z,3.20
2023-04-04T19:02:18.060Z,4.07
2023-04-04T19:04:47.318Z,3.53
2023-04-04T19:07:21.947Z,3.30
2023-04-04T19:09:50.193Z,3.05
2023-04-04T19:12:16.963Z,2.97
2023-04-04T19:14:43.666Z,3.42
2023-04-04T19:17:12.569Z,3.05
2023-04-04T19:19:39.323Z,2.80
2023-04-04T19:22:06.422Z,3.65
2023-04-04T19:24:33.181Z,4.30
2023-04-04T19:26:59.916Z,4.07
2023-04-04T19:29:26.661Z,4.60
2023-04-04T19:31:54.829Z,4.00
2023-04-04T19:34:22.011Z,5.05
2023-04-04T19:36:48.814Z,4.47
2023-04-04T19:39:19.994Z,4.20
2023-04-04T19:41:46.766Z,5.07
2023-04-04T19:44:20.940Z,5.18
2023-04-04T19:46:48.306Z,4.20
2023-04-04T19:49:16.640Z,3.60
2023-04-04T19:51:48.945Z,4.50
2023-04-04T19:54:16.121Z,4.72
2023-04-04T19:56:46.334Z,4.00
2023-04-04T19:59:39.266Z,4.97
2023-04-04T20:02:07.845Z,5.20
2023-04-04T20:04:34.609Z,4.95
2023-04-04T20:07:01.394Z,4.28
2023-04-04T20:09:37.059Z,4.68
2023-04-04T20:12:06.300Z,4.15
2023-04-04T20:14:33.042Z,4.07
2023-04-04T20:16:59.805Z,4.47
2023-04-04T20:19:28.330Z,4.28
2023-04-04T20:22:07.760Z,4.88
2023-04-04T20:24:34.685Z,4.80
2023-04-04T20:27:03.007Z,5.03
2023-04-04T20:29:34.640Z,6.80
2023-04-04T20:32:02.715Z,5.65
2023-04-04T20:34:41.139Z,6.18
2023-04-04T20:37:12.151Z,6.22
2023-04-04T20:39:47.900Z,5.82
2023-04-04T20:42:29.889Z,6.43
2023-04-04T20:45:06.341Z,5.53
2023-04-04T20:47:46.542Z,5.03
2023-04-04T20:50:16.719Z,5.88
2023-04-04T20:52:47.550Z,4.78
2023-04-04T20:55:14.295Z,4.45
2023-04-04T20:57:41.209Z,4.05
2023-04-04T21:00:23.516Z,4.57
2023-04-04T21:02:50.379Z,4.75
2023-04-04T21:05:35.498Z,5.47
2023-04-04T21:08:08.420Z,4.57
2023-04-04T21:10:48.121Z,4.38
2023-04-04T21:13:15.324Z,5.57
2023-04-04T21:15:42.185Z,6.53
2023-04-04T21:18:11.733Z,6.72
2023-04-04T21:20:47.590Z,8.35
2023-04-04T21:23:26.302Z,8.55
2023-04-04T21:26:04.014Z,9.40
2023-04-04T21:28:34.795Z,8.80
2023-04-04T21:31:08.931Z,7.93
2023-04-04T21:33:38.085Z,10.30
2023-04-04T21:36:07.789Z,8.82
2023-04-04T21:38:35.259Z,9.82
2023-04-04T21:41:17.782Z,11.18
2023-04-04T21:43:44.533Z,11.43
2023-04-04T21:46:11.462Z,11.05
2023-04-04T21:48:38.425Z,11.20
2023-04-04T21:51:05.667Z,11.05
2023-04-04T21:53:32.409Z,9.93
2023-04-04T21:55:59.210Z,9.13
2023-04-04T21:58:26.192Z,11.70
2023-04-04T22:00:52.973Z,11.95
2023-04-04T22:03:19.672Z,20.88
2023-04-04T22:05:47.527Z,17.38
2023-04-04T22:08:14.461Z,17.52
2023-04-04T22:10:49.946Z,14.55
2023-04-04T22:13:18.642Z,11.77
2023-04-04T22:15:47.047Z,9.32
2023-04-04T22:18:17.377Z,10.13
2023-04-04T22:20:46.192Z,10.20
2023-04-04T22:23:15.362Z,9.38
2023-04-04T22:25:42.466Z,9.13
2023-04-04T22:28:09.766Z,9.57
2023-04-04T22:30:39.253Z,8.63
2023-04-04T22:33:06.325Z,9.50
2023-04-04T22:35:33.532Z,9.02
2023-04-04T22:38:01.570Z,8.77
2023-04-04T22:40:28.843Z,10.57
2023-04-04T22:42:56.043Z,11.10
2023-04-04T22:45:23.536Z,8.70
2023-04-04T22:47:50.509Z,9.20
2023-04-04T22:50:24.887Z,10.43
2023-04-04T22:52:54.574Z,9.27
2023-04-04T22:55:24.736Z,8.80
2023-04-04T22:57:51.576Z,8.30
2023-04-04T23:00:18.895Z,7.47
2023-04-04T23:02:47.265Z,6.45
2023-04-04T23:05:16.057Z,7.38
2023-04-04T23:07:44.830Z,6.75
2023-04-04T23:10:14.093Z,5.93
2023-04-04T23:12:41.104Z,6.53
2023-04-04T23:15:13.304Z,5.63
2023-04-04T23:17:40.591Z,6.70
2023-04-04T23:20:10.503Z,7.57
2023-04-04T23:22:38.056Z,7.43
2023-04-04T23:25:06.497Z,7.90
2023-04-04T23:27:34.165Z,7.32
2023-04-04T23:30:04.369Z,6.80
2023-04-04T23:32:32.150Z,7.13
2023-04-04T23:34:59.211Z,5.55
2023-04-04T23:37:26.083Z,6.53
2023-04-04T23:39:52.883Z,6.75
2023-04-04T23:42:19.599Z,7.93
2023-04-04T23:44:46.371Z,8.55
2023-04-04T23:47:13.672Z,8.77
2023-04-04T23:49:40.624Z,7.97
2023-04-04T23:52:07.418Z,6.80
2023-04-04T23:54:34.232Z,8.30
2023-04-04T23:57:01.259Z,6.50
2023-04-04T23:59:28.086Z,8.23
